createdAt,value
2018-12-23T00:00:18.934Z,10.67
2018-12-23T00:02:47.217Z,12.07
2018-12-23T00:05:15.511Z,11.43
2018-12-23T00:07:43.851Z,10.90
2018-12-23T00:10:12.138Z,8.90
2018-12-23T00:12:40.424Z,6.90
2018-12-23T00:15:09.178Z,5.63
2018-12-23T00:17:37.636Z,6.33
2018-12-23T00:20:09.782Z,5.33
2018-12-23T00:22:38.125Z,5.27
2018-12-23T00:25:06.782Z,5.87
2018-12-23T00:27:35.211Z,6.33
2018-12-23T00:30:03.750Z,7.20
2018-12-23T00:32:32.889Z,9.33
2018-12-23T00:35:01.343Z,9.30
2018-12-23T00:37:30.447Z,10.70
2018-12-23T00:39:58.744Z,11.00
2018-12-23T00:42:27.348Z,12.07
2018-12-23T00:44:55.951Z,11.70
2018-12-23T00:47:24.257Z,13.73
2018-12-23T00:49:52.806Z,12.13
2018-12-23T00:52:21.101Z,14.63
2018-12-23T00:54:49.558Z,14.37
2018-12-23T00:57:19.312Z,14.13
2018-12-23T00:59:47.956Z,14.73
2018-12-23T01:02:16.658Z,13.43
2018-12-23T01:04:45.149Z,13.10
2018-12-23T01:07:13.575Z,12.60
2018-12-23T01:09:42.275Z,11.47
2018-12-23T01:12:10.752Z,12.13
2018-12-23T01:14:39.170Z,12.20
2018-12-23T01:17:07.552Z,11.67
2018-12-23T01:19:36.021Z,10.67
2018-12-23T01:22:04.401Z,10.73
2018-12-23T01:24:32.732Z,10.53
2018-12-23T01:27:01.082Z,10.40
2018-12-23T01:29:29.407Z,10.03
2018-12-23T01:31:57.697Z,10.53
2018-12-23T01:34:26.016Z,11.20
2018-12-23T01:36:54.312Z,10.10
2018-12-23T01:39:22.833Z,10.93
2018-12-23T01:41:51.494Z,9.63
2018-12-23T01:44:19.943Z,9.90
2018-12-23T01:46:49.195Z,10.63
2018-12-23T01:49:17.561Z,10.63
2018-12-23T01:51:45.992Z,10.67
2018-12-23T01:54:14.523Z,9.60
2018-12-23T01:56:42.839Z,10.87
2018-12-23T01:59:16.745Z,10.73
2018-12-23T02:01:47.988Z,11.03
2018-12-23T02:04:18.997Z,13.37
2018-12-23T02:06:47.622Z,15.57
2018-12-23T02:09:16.069Z,11.83
2018-12-23T02:11:44.613Z,12.97
2018-12-23T02:14:12.979Z,12.67
2018-12-23T02:16:41.611Z,12.23
2018-12-23T02:19:09.950Z,13.47
2018-12-23T02:21:39.086Z,13.43
2018-12-23T02:24:07.514Z,13.23
2018-12-23T02:26:36.419Z,13.13
2018-12-23T02:29:04.796Z,14.33
2018-12-23T02:31:33.381Z,15.17
2018-12-23T02:34:01.816Z,14.27
2018-12-23T02:36:30.140Z,15.37
2018-12-23T02:38:58.727Z,15.07
2018-12-23T02:41:31.652Z,13.90
2018-12-23T02:43:57.835Z,15.03
2018-12-23T02:46:26.347Z,14.93
2018-12-23T02:48:54.870Z,15.93
2018-12-23T02:51:23.814Z,16.00
2018-12-23T02:53:52.158Z,13.07
2018-12-23T02:56:20.659Z,15.20
2018-12-23T02:58:49.099Z,16.40
2018-12-23T03:01:17.923Z,15.03
2018-12-23T03:03:46.350Z,15.33
2018-12-23T03:06:14.653Z,12.10
2018-12-23T03:08:42.992Z,13.87
2018-12-23T03:11:11.596Z,14.93
2018-12-23T03:13:39.941Z,14.20
2018-12-23T03:16:08.327Z,14.17
2018-12-23T03:18:36.671Z,13.57
2018-12-23T03:21:05.102Z,14.43
2018-12-23T03:23:33.551Z,14.30
2018-12-23T03:26:01.989Z,14.40
2018-12-23T03:28:30.399Z,14.37
2018-12-23T03:30:58.713Z,13.67
2018-12-23T03:33:27.583Z,12.97
2018-12-23T03:35:56.072Z,12.90
2018-12-23T03:38:24.514Z,13.37
2018-12-23T03:40:52.838Z,13.07
2018-12-23T03:43:21.225Z,13.93
2018-12-23T03:45:50.183Z,13.13
2018-12-23T03:48:18.628Z,12.80
2018-12-23T03:50:47.610Z,12.03
2018-12-23T03:53:16.038Z,12.57
2018-12-23T03:55:44.412Z,12.63
2018-12-23T03:58:12.853Z,12.70
2018-12-23T04:00:41.440Z,13.67
2018-12-23T04:03:09.884Z,12.40
2018-12-23T04:05:38.517Z,13.60
2018-12-23T04:08:06.991Z,13.70
2018-12-23T04:10:35.371Z,13.37
2018-12-23T04:13:03.709Z,13.57
2018-12-23T04:15:32.117Z,13.10
2018-12-23T04:18:00.398Z,13.37
2018-12-23T04:20:29.009Z,13.97
2018-12-23T04:22:57.301Z,12.83
2018-12-23T04:25:25.608Z,14.03
2018-12-23T04:27:54.167Z,12.40
2018-12-23T04:30:22.480Z,13.30
2018-12-23T04:32:50.775Z,14.00
2018-12-23T04:35:19.082Z,13.80
2018-12-23T04:37:47.390Z,14.07
2018-12-23T04:40:15.778Z,16.70
2018-12-23T04:42:44.159Z,13.97
2018-12-23T04:45:12.827Z,13.10
2018-12-23T04:47:41.240Z,14.50
2018-12-23T04:50:10.164Z,14.97
2018-12-23T04:52:38.673Z,14.83
2018-12-23T04:55:07.083Z,14.43
2018-12-23T04:57:35.371Z,15.57
2018-12-23T05:00:04.703Z,15.90
2018-12-23T05:02:33.149Z,14.67
2018-12-23T05:05:01.723Z,15.20
2018-12-23T05:07:30.199Z,15.57
2018-12-23T05:09:58.633Z,16.40
2018-12-23T05:12:27.147Z,15.47
2018-12-23T05:14:55.579Z,15.97
2018-12-23T05:17:24.012Z,16.90
2018-12-23T05:19:52.388Z,17.40
2018-12-23T05:22:20.773Z,17.10
2018-12-23T05:24:49.772Z,18.07
2018-12-23T05:27:18.102Z,18.07
2018-12-23T05:29:46.388Z,18.13
2018-12-23T05:32:14.724Z,17.73
2018-12-23T05:34:43.076Z,17.57
2018-12-23T05:37:11.917Z,18.13
2018-12-23T05:39:40.386Z,18.70
2018-12-23T05:42:08.835Z,16.70
2018-12-23T05:44:37.576Z,19.07
2018-12-23T05:47:06.026Z,18.80
2018-12-23T05:49:34.344Z,18.83
2018-12-23T05:52:02.667Z,19.17
2018-12-23T05:54:31.548Z,19.63
2018-12-23T05:56:59.918Z,18.63
2018-12-23T05:59:28.239Z,19.17
2018-12-23T06:01:56.523Z,19.13
2018-12-23T06:04:24.822Z,19.43
2018-12-23T06:07:00.873Z,19.53
2018-12-23T06:09:24.186Z,21.83
2018-12-23T06:11:52.568Z,21.03
2018-12-23T06:14:20.885Z,20.70
2018-12-23T06:16:49.239Z,22.33
2018-12-23T06:19:17.619Z,22.73
2018-12-23T06:21:46.282Z,22.57
2018-12-23T06:24:14.612Z,25.07
2018-12-23T06:26:42.933Z,23.43
2018-12-23T06:29:12.022Z,25.30
2018-12-23T06:31:40.740Z,25.37
2018-12-23T06:34:09.054Z,25.00
2018-12-23T06:36:37.771Z,26.43
2018-12-23T06:39:06.557Z,26.67
2018-12-23T06:41:35.056Z,27.03
2018-12-23T06:44:03.442Z,27.10
2018-12-23T06:46:31.827Z,28.03
2018-12-23T06:49:00.897Z,29.00
2018-12-23T06:51:29.334Z,27.63
2018-12-23T06:53:57.649Z,27.70
2018-12-23T06:56:26.152Z,28.17
2018-12-23T06:58:54.628Z,27.97
2018-12-23T07:01:23.282Z,27.87
2018-12-23T07:03:52.284Z,29.37
2018-12-23T07:06:20.703Z,28.60
2018-12-23T07:08:48.984Z,29.20
2018-12-23T07:11:18.122Z,28.17
2018-12-23T07:13:46.667Z,29.30
2018-12-23T07:16:15.130Z,30.73
2018-12-23T07:18:43.652Z,31.33
2018-12-23T07:21:12.099Z,29.80
2018-12-23T07:23:40.401Z,29.83
2018-12-23T07:26:08.878Z,31.43
2018-12-23T07:28:37.256Z,32.70
2018-12-23T07:31:05.858Z,30.37
2018-12-23T07:33:34.208Z,31.67
2018-12-23T07:36:02.657Z,32.37
2018-12-23T07:38:31.179Z,32.17
2018-12-23T07:40:59.882Z,32.27
2018-12-23T07:43:28.347Z,28.80
2018-12-23T07:45:56.738Z,29.47
2018-12-23T07:48:25.543Z,30.77
2018-12-23T07:50:53.912Z,29.97
2018-12-23T07:53:22.365Z,29.73
2018-12-23T07:55:50.803Z,30.10
2018-12-23T07:58:19.344Z,31.63
2018-12-23T08:00:48.003Z,27.93
2018-12-23T08:03:16.289Z,27.10
2018-12-23T08:05:44.600Z,26.97
2018-12-23T08:08:12.967Z,27.77
2018-12-23T08:10:41.286Z,29.70
2018-12-23T08:13:09.605Z,26.70
2018-12-23T08:15:38.125Z,28.80
2018-12-23T08:18:10.611Z,26.70
2018-12-23T08:20:39.522Z,26.77
2018-12-23T08:23:07.952Z,27.87
2018-12-23T08:25:36.245Z,26.10
2018-12-23T08:28:05.370Z,25.63
2018-12-23T08:30:33.656Z,25.10
2018-12-23T08:33:01.974Z,25.53
2018-12-23T08:35:30.265Z,23.83
2018-12-23T08:37:58.602Z,24.80
2018-12-23T08:40:26.910Z,24.47
2018-12-23T08:42:55.453Z,25.77
2018-12-23T08:45:23.915Z,24.47
2018-12-23T08:47:52.472Z,26.60
2018-12-23T08:50:21.581Z,25.77
2018-12-23T08:52:50.638Z,25.70
2018-12-23T08:55:19.129Z,26.30
2018-12-23T08:57:47.425Z,26.63
2018-12-23T09:00:15.764Z,25.57
2018-12-23T09:02:44.095Z,25.30
2018-12-23T09:05:12.987Z,24.50
2018-12-23T09:07:41.706Z,23.97
2018-12-23T09:10:10.152Z,22.93
2018-12-23T09:12:38.627Z,24.27
2018-12-23T09:15:07.125Z,24.87
2018-12-23T09:17:36.164Z,25.87
2018-12-23T09:20:05.330Z,25.97
2018-12-23T09:22:33.660Z,27.60
2018-12-23T09:25:02.127Z,25.50
2018-12-23T09:27:31.227Z,25.47
2018-12-23T09:29:59.500Z,25.70
2018-12-23T09:32:27.892Z,27.43
2018-12-23T09:34:56.179Z,25.30
2018-12-23T09:37:25.244Z,26.13
2018-12-23T09:39:53.697Z,24.97
2018-12-23T09:42:22.062Z,25.47
2018-12-23T09:44:50.624Z,24.97
2018-12-23T09:47:19.149Z,26.80
2018-12-23T09:49:47.522Z,26.20
2018-12-23T09:52:15.862Z,25.60
2018-12-23T09:54:44.407Z,21.77
2018-12-23T09:57:13.886Z,25.73
2018-12-23T09:59:42.510Z,24.93
2018-12-23T10:02:11.211Z,27.23
2018-12-23T10:04:39.653Z,25.90
2018-12-23T10:07:08.084Z,27.13
2018-12-23T10:09:36.412Z,26.60
2018-12-23T10:12:04.890Z,25.60
2018-12-23T10:14:33.354Z,26.27
2018-12-23T10:17:01.680Z,27.07
2018-12-23T10:19:30.177Z,26.63
2018-12-23T10:21:58.510Z,26.23
2018-12-23T10:24:27.063Z,25.77
2018-12-23T10:26:55.458Z,24.93
2018-12-23T10:29:23.972Z,23.47
2018-12-23T10:31:52.285Z,25.97
2018-12-23T10:34:20.676Z,24.53
2018-12-23T10:36:48.967Z,25.07
2018-12-23T10:39:17.282Z,23.60
2018-12-23T10:41:45.606Z,24.70
2018-12-23T10:44:14.102Z,23.27
2018-12-23T10:46:42.460Z,23.47
2018-12-23T10:49:10.994Z,25.57
2018-12-23T10:51:39.420Z,24.70
2018-12-23T10:54:07.800Z,25.03
2018-12-23T10:56:36.324Z,24.17
2018-12-23T10:59:04.902Z,24.60
2018-12-23T11:01:33.198Z,25.90
2018-12-23T11:04:01.953Z,26.17
2018-12-23T11:06:30.511Z,24.67
2018-12-23T11:08:59.172Z,22.90
2018-12-23T11:11:27.670Z,25.67
2018-12-23T11:13:56.243Z,25.10
2018-12-23T11:16:24.704Z,24.30
2018-12-23T11:18:53.156Z,26.07
2018-12-23T11:21:22.061Z,24.87
2018-12-23T11:23:50.409Z,23.93
2018-12-23T11:26:18.750Z,22.87
2018-12-23T11:28:47.094Z,24.13
2018-12-23T11:31:15.563Z,23.77
2018-12-23T11:33:44.280Z,24.10
2018-12-23T11:36:12.800Z,24.30
2018-12-23T11:38:41.430Z,24.80
2018-12-23T11:41:09.931Z,24.47
2018-12-23T11:43:38.322Z,26.60
2018-12-23T11:46:06.654Z,23.97
2018-12-23T11:48:35.819Z,24.03
2018-12-23T11:51:04.855Z,24.50
2018-12-23T11:53:34.811Z,27.20
2018-12-23T11:56:03.478Z,26.43
2018-12-23T11:58:31.779Z,26.23
2018-12-23T12:01:00.110Z,25.43
2018-12-23T12:03:28.447Z,24.93
2018-12-23T12:05:56.749Z,25.10
2018-12-23T12:08:25.431Z,24.63
2018-12-23T12:10:53.876Z,25.53
2018-12-23T12:13:22.511Z,25.73
2018-12-23T12:15:51.190Z,27.53
2018-12-23T12:18:19.517Z,29.10
2018-12-23T12:20:47.936Z,26.00
2018-12-23T12:23:16.250Z,27.27
2018-12-23T12:25:44.579Z,28.87
2018-12-23T12:28:12.905Z,27.40
2018-12-23T12:30:44.391Z,28.37
2018-12-23T12:33:12.827Z,27.40
2018-12-23T12:35:41.352Z,27.23
2018-12-23T12:38:09.683Z,26.03
2018-12-23T12:40:38.038Z,25.37
2018-12-23T12:43:07.149Z,24.53
2018-12-23T12:45:35.650Z,24.00
2018-12-23T12:48:04.335Z,25.40
2018-12-23T12:50:32.826Z,25.23
2018-12-23T12:53:01.186Z,24.27
2018-12-23T12:55:29.867Z,26.20
2018-12-23T12:57:58.184Z,25.40
2018-12-23T13:00:26.530Z,26.33
2018-12-23T13:02:54.816Z,27.03
2018-12-23T13:05:23.253Z,24.37
2018-12-23T13:07:51.549Z,26.50
2018-12-23T13:10:19.849Z,25.83
2018-12-23T13:12:48.304Z,24.13
2018-12-23T13:15:16.818Z,25.93
2018-12-23T13:17:45.276Z,26.83
2018-12-23T13:20:13.787Z,24.73
2018-12-23T13:22:42.260Z,22.90
2018-12-23T13:25:10.657Z,25.37
2018-12-23T13:27:39.027Z,23.80
2018-12-23T13:30:07.918Z,25.87
2018-12-23T13:32:36.715Z,26.93
2018-12-23T13:35:05.255Z,26.47
2018-12-23T13:37:33.537Z,24.93
2018-12-23T13:40:12.842Z,21.87
2018-12-23T13:46:54.764Z,16.80
2018-12-23T13:49:48.224Z,13.70
2018-12-23T13:52:31.579Z,13.83
2018-12-23T13:55:40.670Z,11.03
2018-12-23T13:58:36.143Z,9.23
2018-12-23T14:01:39.396Z,7.60
2018-12-23T14:04:33.075Z,7.90
2018-12-23T14:07:42.325Z,8.53
2018-12-23T14:10:31.372Z,7.20
2018-12-23T14:13:01.203Z,7.77
2018-12-23T14:15:30.794Z,7.23
2018-12-23T14:18:00.531Z,7.97
2018-12-23T14:20:30.194Z,8.17
2018-12-23T14:23:00.259Z,8.30
2018-12-23T14:25:30.202Z,8.60
2018-12-23T14:28:00.035Z,9.03
2018-12-23T14:30:29.742Z,9.23
2018-12-23T14:32:59.425Z,9.57
2018-12-23T14:35:29.373Z,10.27
2018-12-23T14:37:58.960Z,9.70
2018-12-23T14:40:28.715Z,11.83
2018-12-23T14:42:58.444Z,12.00
2018-12-23T14:45:28.163Z,12.30
2018-12-23T14:47:57.865Z,12.00
2018-12-23T14:50:27.881Z,14.77
2018-12-23T14:52:57.703Z,12.30
2018-12-23T14:55:27.344Z,11.73
2018-12-23T14:57:57.281Z,12.20
2018-12-23T15:00:26.964Z,11.67
2018-12-23T15:02:56.701Z,12.53
2018-12-23T15:05:26.568Z,11.93
2018-12-23T15:07:56.255Z,11.97
2018-12-23T15:10:26.052Z,13.07
2018-12-23T15:12:55.836Z,12.07
2018-12-23T15:15:26.310Z,12.87
2018-12-23T15:17:56.163Z,13.03
2018-12-23T15:20:26.165Z,12.90
2018-12-23T15:22:56.015Z,13.03
2018-12-23T15:25:26.191Z,12.90
2018-12-23T15:27:55.796Z,13.97
2018-12-23T15:30:25.500Z,13.97
2018-12-23T15:32:55.305Z,14.77
2018-12-23T15:35:24.977Z,15.23
2018-12-23T15:37:54.666Z,14.83
2018-12-23T15:40:24.383Z,14.10
2018-12-23T15:42:54.064Z,14.90
2018-12-23T15:45:24.073Z,14.60
2018-12-23T15:47:53.791Z,14.43
2018-12-23T15:50:23.755Z,14.03
2018-12-23T15:52:53.617Z,14.57
2018-12-23T15:55:23.542Z,14.47
2018-12-23T15:57:53.308Z,13.70
2018-12-23T16:00:23.271Z,14.17
2018-12-23T16:02:53.268Z,13.43
2018-12-23T16:05:23.117Z,16.47
2018-12-23T16:07:52.864Z,17.13
2018-12-23T16:10:22.725Z,17.40
2018-12-23T16:12:52.484Z,17.90
2018-12-23T16:15:22.386Z,18.07
2018-12-23T16:17:52.314Z,18.33
2018-12-23T16:20:22.334Z,17.50
2018-12-23T16:22:52.278Z,18.37
2018-12-23T16:25:22.203Z,17.87
2018-12-23T16:27:52.348Z,18.17
2018-12-23T16:30:22.761Z,17.57
2018-12-23T16:32:52.492Z,17.13
2018-12-23T16:35:22.135Z,16.70
2018-12-23T16:37:51.813Z,16.57
2018-12-23T16:40:21.564Z,15.60
2018-12-23T16:42:51.662Z,17.00
2018-12-23T16:45:21.769Z,14.50
2018-12-23T16:47:51.459Z,16.70
2018-12-23T16:50:21.160Z,13.23
2018-12-23T16:52:50.981Z,13.63
2018-12-23T16:55:20.817Z,16.63
2018-12-23T16:57:50.478Z,18.27
2018-12-23T17:00:20.321Z,17.30
2018-12-23T17:02:50.076Z,19.17
2018-12-23T17:05:19.759Z,17.60
2018-12-23T17:07:49.740Z,14.90
2018-12-23T17:10:19.724Z,13.53
2018-12-23T17:12:49.519Z,12.50
2018-12-23T17:15:23.570Z,9.10
2018-12-23T17:17:53.482Z,7.17
2018-12-23T17:20:23.488Z,8.70
